createdAt,value
2019-03-19T00:00:55.086Z,1.52
2019-03-19T00:03:27.200Z,1.50
2019-03-19T00:06:01.149Z,1.48
2019-03-19T00:08:34.818Z,1.46
2019-03-19T00:11:07.813Z,1.47
2019-03-19T00:13:40.642Z,1.49
2019-03-19T00:16:12.680Z,1.55
2019-03-19T00:18:46.366Z,1.64
2019-03-19T00:21:17.723Z,1.82
2019-03-19T00:23:49.720Z,2.08
2019-03-19T00:26:22.908Z,2.27
2019-03-19T00:28:56.642Z,2.38
2019-03-19T00:31:28.878Z,2.50
2019-03-19T00:34:00.841Z,2.51
2019-03-19T00:36:35.817Z,2.51
2019-03-19T00:39:08.767Z,2.49
2019-03-19T00:41:41.037Z,2.55
2019-03-19T00:44:13.846Z,2.54
2019-03-19T00:46:46.847Z,2.52
2019-03-19T00:49:19.790Z,2.45
2019-03-19T00:51:55.538Z,2.35
2019-03-19T00:54:27.855Z,2.30
2019-03-19T00:57:00.801Z,2.23
2019-03-19T00:59:34.544Z,2.19
2019-03-19T01:02:08.085Z,2.17
2019-03-19T01:04:41.808Z,2.14
2019-03-19T01:07:16.044Z,2.14
2019-03-19T01:09:47.948Z,2.14
2019-03-19T01:12:21.917Z,2.10
2019-03-19T01:14:54.924Z,2.07
2019-03-19T01:17:28.337Z,2.07
2019-03-19T01:20:02.065Z,2.10
2019-03-19T01:22:35.185Z,2.09
2019-03-19T01:25:07.897Z,2.08
2019-03-19T01:27:39.955Z,2.08
2019-03-19T01:30:14.272Z,2.11
2019-03-19T01:32:46.157Z,2.11
2019-03-19T01:35:19.049Z,2.08
2019-03-19T01:37:52.192Z,2.05
2019-03-19T01:40:25.899Z,2.08
2019-03-19T01:42:57.967Z,2.04
2019-03-19T01:45:30.133Z,1.99
2019-03-19T01:48:03.586Z,1.94
2019-03-19T01:50:37.227Z,1.89
2019-03-19T01:53:09.905Z,1.84
2019-03-19T01:55:41.245Z,1.78
2019-03-19T01:58:13.195Z,1.69
2019-03-19T02:00:46.316Z,1.64
2019-03-19T02:03:19.255Z,1.57
2019-03-19T02:05:51.082Z,1.53
2019-03-19T02:08:26.880Z,1.50
2019-03-19T02:10:58.458Z,1.46
2019-03-19T02:13:31.135Z,1.34
2019-03-19T02:16:04.438Z,1.28
2019-03-19T02:18:36.655Z,1.21
2019-03-19T02:21:11.715Z,1.16
2019-03-19T02:23:43.194Z,1.13
2019-03-19T02:26:17.038Z,1.08
2019-03-19T02:28:50.698Z,1.07
2019-03-19T02:31:22.325Z,1.09
2019-03-19T02:33:57.199Z,1.09
2019-03-19T02:36:29.194Z,1.12
2019-03-19T02:39:01.349Z,1.13
2019-03-19T02:41:34.444Z,1.16
2019-03-19T02:44:09.027Z,1.16
2019-03-19T02:46:40.338Z,1.14
2019-03-19T02:49:12.701Z,1.14
2019-03-19T02:51:44.394Z,0.57
2019-03-19T02:54:16.459Z,1.13
2019-03-19T02:56:49.325Z,1.14
2019-03-19T02:59:22.393Z,1.14
2019-03-19T03:01:54.566Z,1.13
2019-03-19T03:04:26.407Z,1.12
2019-03-19T03:06:58.058Z,1.13
2019-03-19T03:09:31.596Z,1.14
2019-03-19T03:12:04.482Z,1.16
2019-03-19T03:14:36.522Z,1.14
2019-03-19T03:17:08.494Z,1.12
2019-03-19T03:19:41.342Z,1.12
2019-03-19T03:22:14.444Z,1.17
2019-03-19T03:24:48.588Z,1.14
2019-03-19T03:27:24.343Z,1.11
2019-03-19T03:29:57.896Z,1.08
2019-03-19T03:32:31.677Z,1.05
2019-03-19T03:35:05.657Z,1.05
2019-03-19T03:37:38.570Z,1.04
2019-03-19T03:40:11.309Z,1.03
2019-03-19T03:42:44.508Z,1.04
2019-03-19T03:45:16.642Z,1.05
2019-03-19T03:47:49.824Z,1.06
2019-03-19T03:50:22.607Z,1.07
2019-03-19T03:52:55.688Z,1.07
2019-03-19T03:55:31.066Z,1.01
2019-03-19T03:58:04.725Z,0.97
2019-03-19T04:00:37.779Z,0.90
2019-03-19T04:03:11.034Z,0.86
2019-03-19T04:05:43.472Z,0.76
2019-03-19T04:08:16.769Z,0.74
2019-03-19T04:10:49.776Z,0.73
2019-03-19T04:13:22.813Z,0.71
2019-03-19T04:15:55.686Z,0.67
2019-03-19T04:18:28.832Z,0.62
2019-03-19T04:21:01.920Z,0.58
2019-03-19T04:23:35.700Z,0.54
2019-03-19T04:26:07.794Z,0.50
2019-03-19T04:28:39.813Z,0.44
2019-03-19T04:31:13.371Z,0.44
2019-03-19T04:33:46.772Z,0.47
2019-03-19T04:36:20.010Z,0.51
2019-03-19T04:38:52.936Z,0.57
2019-03-19T04:41:25.991Z,0.58
2019-03-19T04:43:59.054Z,0.57
2019-03-19T04:46:31.989Z,0.58
2019-03-19T04:49:04.917Z,0.57
2019-03-19T04:51:37.965Z,0.56
2019-03-19T04:54:10.838Z,0.55
2019-03-19T04:56:43.939Z,0.53
2019-03-19T04:59:17.818Z,0.50
2019-03-19T05:01:50.065Z,0.48
2019-03-19T05:04:23.175Z,0.44
2019-03-19T05:06:55.263Z,0.44
2019-03-19T05:09:29.191Z,0.43
2019-03-19T05:12:02.027Z,0.41
2019-03-19T05:14:35.033Z,0.40
2019-03-19T05:17:08.966Z,0.39
2019-03-19T05:19:42.023Z,0.39
2019-03-19T05:22:15.085Z,0.35
2019-03-19T05:24:47.519Z,0.36
2019-03-19T05:27:22.898Z,0.34
2019-03-19T05:29:56.203Z,0.40
2019-03-19T05:32:30.249Z,0.42
2019-03-19T05:35:02.170Z,0.49
2019-03-19T05:37:35.192Z,0.56
2019-03-19T05:40:08.435Z,0.61
2019-03-19T05:42:42.410Z,0.67
2019-03-19T05:45:16.121Z,0.76
2019-03-19T05:47:50.134Z,0.87
2019-03-19T05:50:24.016Z,0.97
2019-03-19T05:52:57.349Z,1.09
2019-03-19T05:55:29.177Z,1.17
2019-03-19T05:58:02.613Z,1.22
2019-03-19T06:00:35.765Z,1.29
2019-03-19T06:03:08.471Z,1.30
2019-03-19T06:05:41.430Z,1.28
2019-03-19T06:08:13.180Z,1.33
2019-03-19T06:10:47.299Z,1.41
2019-03-19T06:13:19.229Z,1.51
2019-03-19T06:15:51.412Z,1.62
2019-03-19T06:18:34.734Z,1.73
2019-03-19T06:21:01.429Z,1.86
2019-03-19T06:23:34.482Z,1.97
2019-03-19T06:26:07.556Z,2.08
2019-03-19T06:28:40.464Z,2.21
2019-03-19T06:31:13.355Z,2.32
2019-03-19T06:33:48.179Z,2.45
2019-03-19T06:36:22.309Z,2.61
2019-03-19T06:38:57.563Z,2.82
2019-03-19T06:41:31.339Z,2.99
2019-03-19T06:44:02.851Z,3.22
2019-03-19T06:46:34.499Z,3.39
2019-03-19T06:49:07.718Z,3.49
2019-03-19T06:51:39.595Z,3.62
2019-03-19T06:54:13.614Z,3.74
2019-03-19T06:56:46.564Z,3.79
2019-03-19T06:59:20.803Z,3.83
2019-03-19T07:01:54.676Z,3.88
2019-03-19T07:04:28.138Z,3.98
2019-03-19T07:07:03.018Z,4.12
2019-03-19T07:09:34.580Z,4.21
2019-03-19T07:12:07.845Z,4.24
2019-03-19T07:14:40.434Z,4.29
2019-03-19T07:17:13.633Z,4.36
2019-03-19T07:19:47.654Z,3.70
2019-03-19T07:22:19.931Z,4.56
2019-03-19T07:24:53.718Z,4.73
2019-03-19T07:27:29.064Z,4.92
2019-03-19T07:30:01.836Z,5.08
2019-03-19T07:32:35.815Z,5.07
2019-03-19T07:35:07.816Z,5.10
2019-03-19T07:37:39.235Z,5.18
2019-03-19T07:40:11.657Z,5.29
2019-03-19T07:42:43.975Z,5.66
2019-03-19T07:45:17.022Z,5.66
2019-03-19T07:47:49.925Z,5.77
2019-03-19T07:50:23.628Z,5.85
2019-03-19T07:52:55.793Z,5.82
2019-03-19T07:55:39.667Z,5.87
2019-03-19T07:58:15.521Z,5.82
2019-03-19T08:00:49.440Z,5.83
2019-03-19T08:03:22.944Z,5.81
2019-03-19T08:05:54.780Z,5.98
2019-03-19T08:08:29.632Z,6.01
2019-03-19T08:11:01.941Z,5.91
2019-03-19T08:13:35.978Z,5.99
2019-03-19T08:16:09.689Z,5.90
2019-03-19T08:18:46.349Z,6.00
2019-03-19T08:21:19.041Z,6.04
2019-03-19T08:23:53.144Z,6.18
2019-03-19T08:26:26.084Z,6.36
2019-03-19T08:28:58.503Z,6.63
2019-03-19T08:31:33.989Z,6.91
2019-03-19T08:34:07.975Z,7.08
2019-03-19T08:36:40.904Z,7.26
2019-03-19T08:39:15.093Z,7.34
2019-03-19T08:41:48.870Z,7.53
2019-03-19T08:44:27.691Z,7.50
2019-03-19T08:46:58.615Z,7.44
2019-03-19T08:49:33.000Z,7.36
2019-03-19T08:52:05.248Z,7.37
2019-03-19T08:54:38.053Z,7.38
2019-03-19T08:57:11.099Z,7.54
2019-03-19T08:59:44.402Z,7.53
2019-03-19T09:02:17.339Z,7.59
2019-03-19T09:04:51.188Z,7.64
2019-03-19T09:07:24.855Z,7.51
2019-03-19T09:09:57.216Z,7.59
2019-03-19T09:12:29.287Z,7.41
2019-03-19T09:15:02.339Z,7.35
2019-03-19T09:17:36.336Z,7.32
2019-03-19T09:20:10.138Z,7.39
2019-03-19T09:22:43.296Z,7.48
2019-03-19T09:25:17.260Z,7.50
2019-03-19T09:27:50.249Z,7.55
2019-03-19T09:30:26.056Z,7.69
2019-03-19T09:33:00.080Z,7.96
2019-03-19T09:35:35.285Z,8.15
2019-03-19T09:38:08.261Z,8.37
2019-03-19T09:40:43.357Z,8.46
2019-03-19T09:43:18.916Z,8.62
2019-03-19T09:45:53.345Z,8.79
2019-03-19T09:48:28.308Z,8.66
2019-03-19T09:51:02.320Z,8.64
2019-03-19T09:53:35.288Z,8.67
2019-03-19T09:56:08.332Z,8.91
2019-03-19T09:58:42.697Z,9.07
2019-03-19T10:01:14.393Z,9.23
2019-03-19T10:03:48.094Z,9.05
2019-03-19T10:06:20.356Z,9.02
2019-03-19T10:08:53.313Z,8.94
2019-03-19T10:11:28.558Z,8.78
2019-03-19T10:14:02.474Z,8.81
2019-03-19T10:16:37.322Z,8.83
2019-03-19T10:19:13.073Z,8.94
2019-03-19T10:21:44.542Z,8.66
2019-03-19T10:24:17.579Z,9.29
2019-03-19T10:26:51.574Z,9.51
2019-03-19T10:29:25.916Z,9.61
2019-03-19T10:32:01.179Z,9.58
2019-03-19T10:34:33.818Z,9.54
2019-03-19T10:37:08.371Z,9.64
2019-03-19T10:39:43.882Z,9.60
2019-03-19T10:42:17.740Z,9.63
2019-03-19T10:44:52.244Z,9.75
2019-03-19T10:47:27.556Z,9.83
2019-03-19T10:50:02.319Z,9.88
2019-03-19T10:52:38.095Z,9.94
2019-03-19T10:55:13.314Z,10.35
2019-03-19T10:57:45.056Z,9.96
2019-03-19T11:00:22.425Z,10.60
2019-03-19T11:02:56.855Z,10.54
2019-03-19T11:05:28.767Z,10.81
2019-03-19T11:08:05.622Z,10.75
2019-03-19T11:10:39.723Z,10.79
2019-03-19T11:13:13.757Z,11.22
2019-03-19T11:15:48.229Z,11.42
2019-03-19T11:18:19.754Z,11.64
2019-03-19T11:20:53.336Z,11.62
2019-03-19T11:23:27.015Z,11.85
2019-03-19T11:26:00.699Z,11.85
2019-03-19T11:28:33.602Z,12.22
2019-03-19T11:31:09.422Z,12.46
2019-03-19T11:33:44.082Z,12.43
2019-03-19T11:36:17.027Z,12.48
2019-03-19T11:38:51.632Z,12.57
2019-03-19T11:41:26.601Z,12.67
2019-03-19T11:44:00.295Z,12.67
2019-03-19T11:46:33.750Z,12.48
2019-03-19T11:49:07.115Z,12.03
2019-03-19T11:51:43.698Z,11.55
2019-03-19T11:54:20.888Z,11.50
2019-03-19T11:56:55.559Z,11.33
2019-03-19T11:59:30.594Z,10.94
2019-03-19T12:02:07.770Z,10.58
2019-03-19T12:04:41.071Z,10.50
2019-03-19T12:07:14.764Z,10.24
2019-03-19T12:09:47.299Z,9.91
2019-03-19T12:12:20.082Z,9.91
2019-03-19T12:14:54.669Z,9.97
2019-03-19T12:17:29.026Z,10.05
2019-03-19T12:20:06.344Z,10.08
2019-03-19T12:22:38.005Z,10.11
2019-03-19T12:25:10.969Z,10.06
2019-03-19T12:27:44.308Z,10.06
2019-03-19T12:30:22.210Z,10.11
2019-03-19T12:32:53.187Z,10.35
2019-03-19T12:35:27.102Z,10.72
2019-03-19T12:38:11.745Z,10.89
2019-03-19T12:40:46.504Z,10.89
2019-03-19T12:43:21.137Z,10.77
2019-03-19T12:45:59.835Z,10.74
2019-03-19T12:48:32.117Z,10.62
2019-03-19T12:51:04.370Z,10.39
2019-03-19T12:53:39.612Z,10.15
2019-03-19T12:56:12.293Z,10.08
2019-03-19T12:58:44.232Z,10.05
2019-03-19T13:01:17.445Z,9.99
2019-03-19T13:03:51.755Z,10.02
2019-03-19T13:06:27.527Z,10.08
2019-03-19T13:08:59.000Z,10.08
2019-03-19T13:11:33.565Z,9.91
2019-03-19T13:14:06.284Z,9.92
2019-03-19T13:16:39.533Z,9.92
2019-03-19T13:19:11.981Z,9.93
2019-03-19T13:21:44.263Z,10.07
2019-03-19T13:24:17.454Z,10.18
2019-03-19T13:26:50.652Z,10.18
2019-03-19T13:29:23.575Z,10.72
2019-03-19T13:31:56.220Z,10.72
2019-03-19T13:34:29.486Z,10.63
2019-03-19T13:37:03.957Z,10.56
2019-03-19T13:39:38.356Z,10.59
2019-03-19T13:42:11.291Z,10.60
2019-03-19T13:44:42.823Z,10.43
2019-03-19T13:47:15.290Z,10.27
2019-03-19T13:49:47.729Z,10.14
2019-03-19T13:52:20.770Z,9.91
2019-03-19T13:54:53.313Z,9.72
2019-03-19T13:57:26.946Z,9.40
2019-03-19T13:59:58.864Z,9.02
2019-03-19T14:02:32.390Z,8.77
2019-03-19T14:05:05.937Z,8.58
2019-03-19T14:07:38.351Z,8.45
2019-03-19T14:10:11.709Z,8.24
2019-03-19T14:12:44.408Z,8.15
2019-03-19T14:15:17.599Z,8.13
2019-03-19T14:17:52.407Z,7.90
2019-03-19T14:20:26.448Z,7.75
2019-03-19T14:22:58.986Z,7.78
2019-03-19T14:25:32.415Z,7.63
2019-03-19T14:28:07.436Z,7.45
2019-03-19T14:30:42.973Z,7.26
2019-03-19T14:33:14.542Z,7.23
2019-03-19T14:35:47.558Z,7.28
2019-03-19T14:38:20.578Z,7.34
2019-03-19T14:40:52.497Z,7.39
2019-03-19T14:43:26.444Z,7.49
2019-03-19T14:45:59.205Z,7.63
2019-03-19T14:48:32.543Z,7.72
2019-03-19T14:51:06.184Z,7.79
2019-03-19T14:53:38.539Z,7.89
2019-03-19T14:56:13.117Z,7.93
2019-03-19T14:58:46.622Z,7.98
2019-03-19T15:01:20.863Z,8.04
2019-03-19T15:03:53.545Z,8.12
2019-03-19T15:06:26.691Z,8.19
2019-03-19T15:08:59.116Z,8.27
2019-03-19T15:11:34.822Z,8.27
2019-03-19T15:14:07.696Z,8.32
2019-03-19T15:16:39.937Z,8.33
2019-03-19T15:19:11.636Z,8.36
2019-03-19T15:21:43.746Z,8.28
2019-03-19T15:24:15.803Z,8.21
2019-03-19T15:26:47.769Z,8.18
2019-03-19T15:29:21.029Z,8.10
2019-03-19T15:31:52.804Z,8.09
2019-03-19T15:34:24.991Z,8.11
2019-03-19T15:36:57.722Z,8.08
2019-03-19T15:39:29.995Z,8.08
2019-03-19T15:42:04.682Z,8.03
2019-03-19T15:44:37.837Z,7.99
2019-03-19T15:47:09.485Z,7.95
2019-03-19T15:49:42.302Z,7.91
2019-03-19T15:52:14.819Z,7.90
2019-03-19T15:54:47.146Z,7.91
2019-03-19T15:57:21.075Z,7.96
2019-03-19T15:59:54.008Z,8.01
2019-03-19T16:02:26.919Z,8.03
2019-03-19T16:04:59.464Z,8.04
2019-03-19T16:07:31.991Z,8.06
2019-03-19T16:10:07.887Z,8.03
2019-03-19T16:12:40.012Z,8.02
2019-03-19T16:15:13.290Z,7.98
2019-03-19T16:17:44.955Z,7.79
2019-03-19T16:20:17.300Z,7.87
2019-03-19T16:22:51.227Z,7.83
2019-03-19T16:25:23.294Z,7.76
2019-03-19T16:27:57.242Z,7.69
2019-03-19T16:30:28.922Z,7.67
2019-03-19T16:33:02.177Z,7.65
2019-03-19T16:35:36.170Z,7.68
2019-03-19T16:38:08.081Z,7.58
2019-03-19T16:40:42.382Z,7.58
2019-03-19T16:43:15.171Z,7.52
2019-03-19T16:45:47.310Z,7.43
2019-03-19T16:48:19.272Z,7.41
2019-03-19T16:50:51.293Z,7.39
2019-03-19T16:53:25.826Z,7.33
2019-03-19T16:56:02.296Z,7.33
2019-03-19T16:58:35.588Z,7.29
2019-03-19T17:01:19.101Z,7.18
2019-03-19T17:03:53.440Z,7.11
2019-03-19T17:06:28.806Z,6.99
2019-03-19T17:09:08.234Z,6.87
2019-03-19T17:11:46.161Z,6.81
2019-03-19T17:14:22.594Z,6.69
2019-03-19T17:16:57.268Z,6.60
2019-03-19T17:19:31.724Z,6.53
2019-03-19T17:22:05.771Z,6.48
2019-03-19T17:24:40.756Z,6.46
2019-03-19T17:27:15.611Z,6.42
2019-03-19T17:29:51.454Z,6.38
2019-03-19T17:32:24.434Z,6.35
2019-03-19T17:34:56.680Z,6.34
2019-03-19T17:37:30.794Z,6.33
2019-03-19T17:40:02.887Z,6.33
2019-03-19T17:42:35.747Z,6.32
2019-03-19T17:45:10.644Z,6.28
2019-03-19T17:47:44.742Z,6.26
2019-03-19T17:50:19.113Z,6.25
2019-03-19T17:52:53.835Z,6.24
2019-03-19T17:55:26.645Z,6.22
2019-03-19T17:58:03.355Z,6.21
2019-03-19T18:00:40.168Z,6.20
2019-03-19T18:03:13.379Z,6.18
2019-03-19T18:05:49.157Z,6.16
2019-03-19T18:08:22.997Z,6.15
2019-03-19T18:10:56.770Z,6.14
2019-03-19T18:13:29.572Z,6.14
2019-03-19T18:16:02.808Z,6.13
2019-03-19T18:18:35.879Z,6.12
2019-03-19T18:21:09.000Z,6.10
2019-03-19T18:23:41.813Z,6.06
2019-03-19T18:26:14.905Z,6.05
2019-03-19T18:28:47.760Z,6.03
2019-03-19T18:31:22.230Z,6.02
2019-03-19T18:33:53.638Z,6.02
2019-03-19T18:36:26.980Z,6.00
2019-03-19T18:38:58.792Z,6.00
2019-03-19T18:41:33.196Z,5.97
2019-03-19T18:44:05.669Z,5.94
2019-03-19T18:46:37.797Z,5.89
2019-03-19T18:49:16.757Z,5.86
2019-03-19T18:51:53.182Z,5.18
2019-03-19T18:54:24.942Z,5.82
2019-03-19T18:56:58.808Z,5.80
2019-03-19T18:59:35.184Z,5.76
2019-03-19T19:02:09.929Z,5.72
2019-03-19T19:04:42.822Z,5.66
2019-03-19T19:07:15.013Z,5.59
2019-03-19T19:09:48.224Z,5.53
2019-03-19T19:12:21.173Z,5.47
2019-03-19T19:14:54.130Z,5.42
2019-03-19T19:17:27.735Z,5.37
2019-03-19T19:20:00.364Z,5.34
2019-03-19T19:22:34.211Z,5.33
2019-03-19T19:25:07.167Z,5.30
2019-03-19T19:27:39.016Z,5.29
2019-03-19T19:30:14.712Z,5.29
2019-03-19T19:32:48.138Z,5.29
2019-03-19T19:35:21.108Z,5.30
2019-03-19T19:37:55.526Z,5.31
2019-03-19T19:40:27.179Z,5.32
2019-03-19T19:42:59.656Z,5.31
2019-03-19T19:45:34.630Z,5.31
2019-03-19T19:48:06.478Z,5.33
2019-03-19T19:50:39.405Z,5.32
2019-03-19T19:53:12.349Z,5.34
2019-03-19T19:55:46.393Z,5.31
2019-03-19T19:58:19.578Z,5.31
2019-03-19T20:00:53.514Z,5.30
2019-03-19T20:03:30.965Z,5.30
2019-03-19T20:06:03.248Z,5.29
2019-03-19T20:08:36.086Z,5.27
2019-03-19T20:11:11.037Z,5.22
2019-03-19T20:13:44.633Z,5.17
2019-03-19T20:16:21.761Z,5.12
2019-03-19T20:18:54.296Z,5.13
2019-03-19T20:21:27.655Z,5.12
2019-03-19T20:23:59.591Z,5.10
2019-03-19T20:26:33.317Z,5.08
2019-03-19T20:29:10.588Z,5.04
2019-03-19T20:31:42.615Z,5.01
2019-03-19T20:34:15.408Z,5.01
2019-03-19T20:36:48.307Z,5.01
2019-03-19T20:39:23.120Z,5.00
2019-03-19T20:41:59.843Z,4.99
2019-03-19T20:44:33.513Z,4.98
2019-03-19T20:47:06.568Z,4.95
2019-03-19T20:49:47.328Z,4.93
2019-03-19T20:52:30.901Z,4.93
2019-03-19T20:55:03.362Z,4.95
2019-03-19T20:57:37.786Z,4.97
2019-03-19T21:00:12.209Z,4.97
2019-03-19T21:02:45.855Z,4.96
2019-03-19T21:05:21.234Z,4.96
2019-03-19T21:07:53.525Z,4.94
2019-03-19T21:10:26.700Z,4.92
2019-03-19T21:13:00.367Z,4.88
2019-03-19T21:15:33.070Z,4.85
2019-03-19T21:18:07.173Z,4.80
2019-03-19T21:20:41.209Z,4.76
2019-03-19T21:23:17.582Z,4.66
2019-03-19T21:25:51.169Z,4.66
2019-03-19T21:28:25.152Z,4.61
2019-03-19T21:31:00.047Z,4.57
2019-03-19T21:33:34.018Z,4.54
2019-03-19T21:36:10.500Z,4.50
2019-03-19T21:38:43.712Z,4.42
2019-03-19T21:41:19.648Z,4.43
2019-03-19T21:43:55.387Z,4.39
2019-03-19T21:46:32.538Z,4.33
2019-03-19T21:49:08.403Z,4.31
2019-03-19T21:51:44.586Z,4.28
2019-03-19T21:54:19.869Z,3.11
2019-03-19T21:56:53.838Z,4.23
2019-03-19T21:59:27.237Z,4.21
2019-03-19T22:02:00.984Z,4.20
2019-03-19T22:04:34.087Z,4.19
2019-03-19T22:07:07.865Z,4.18
2019-03-19T22:09:39.415Z,4.17
2019-03-19T22:12:11.895Z,4.12
2019-03-19T22:14:44.015Z,4.09
2019-03-19T22:17:17.748Z,4.08
2019-03-19T22:19:50.854Z,4.06
2019-03-19T22:22:23.847Z,4.06
2019-03-19T22:24:57.743Z,4.03
2019-03-19T22:27:29.793Z,4.00
2019-03-19T22:30:03.529Z,3.97
2019-03-19T22:32:35.809Z,3.97
2019-03-19T22:35:09.268Z,3.97
2019-03-19T22:37:41.852Z,3.98
2019-03-19T22:40:16.380Z,3.99
2019-03-19T22:42:49.976Z,4.00
2019-03-19T22:45:24.115Z,4.02
2019-03-19T23:46:10.117Z,3.63
2019-03-19T23:48:44.927Z,3.63
2019-03-19T23:51:18.274Z,3.64
2019-03-19T23:53:55.284Z,3.66
2019-03-19T23:56:29.555Z,3.66
2019-03-19T23:59:03.528Z,3.68
